Time;durP1;ratioP1;P1;durP2;ratioP2;P2;SDS_P1;SDS_P2;PMS_P1;PMS_P2;Temp;Humidity;BMP_temperature;BMP_pressure;BME280_temperature;BME280_humidity;BME280_pressure;Samples;Min_cycle;Max_cycle;Signal;HPM_P1;HPM_P2
2022/07/12 00:01:05;;;;;;;0.10;0.10;;;15.70;99.90;;;;;;5050188;28;20040;-70
2022/07/12 00:03:30;;;;;;;0.10;0.10;;;15.80;99.90;;;;;;5055039;28;20056;-70
2022/07/12 00:05:56;;;;;;;0.00;0.00;;;15.70;99.90;;;;;;5055062;28;20382;-70
2022/07/12 00:08:22;;;;;;;;;;;15.90;99.90;;;;;;5054891;28;20062;-70
2022/07/12 00:10:48;;;;;;;0.00;0.00;;;15.90;99.90;;;;;;5054568;28;19916;-70
2022/07/12 00:13:15;;;;;;;0.00;0.00;;;15.90;99.90;;;;;;5054111;28;20045;-70
2022/07/12 00:15:41;;;;;;;0.03;0.00;;;15.30;99.90;;;;;;5072523;28;20155;-70
2022/07/12 00:18:08;;;;;;;0.10;0.10;;;15.90;99.90;;;;;;5054121;28;20048;-70
2022/07/12 00:20:33;;;;;;;0.05;0.05;;;15.30;99.90;;;;;;5037416;28;20433;-70
2022/07/12 00:22:59;;;;;;;0.10;0.10;;;15.60;99.90;;;;;;5055489;28;20033;-70
2022/07/12 00:25:25;;;;;;;0.08;0.08;;;15.70;99.90;;;;;;5050117;28;20040;-70
2022/07/12 00:27:52;;;;;;;0.00;0.00;;;15.40;99.90;;;;;;5044145;28;20041;-70
2022/07/12 00:30:18;;;;;;;0.00;0.00;;;15.60;99.90;;;;;;5053144;28;20332;-70
2022/07/12 00:32:44;;;;;;;0.10;0.10;;;15.50;99.90;;;;;;5045973;28;20044;-70
2022/07/12 00:35:10;;;;;;;0.00;0.00;;;15.90;99.90;;;;;;5035402;28;20044;-70
2022/07/12 00:37:36;;;;;;;;;;;15.90;99.90;;;;;;5054293;28;20036;-70
2022/07/12 00:40:06;;;;;;;0.10;0.10;;;15.70;99.90;;;;;;5056822;28;19972;-70
2022/07/12 00:42:32;;;;;;;0.00;0.00;;;15.90;99.90;;;;;;5053362;28;20562;-70
2022/07/12 00:44:58;;;;;;;0.03;0.03;;;15.40;99.90;;;;;;5053911;28;20056;-70
2022/07/12 00:47:43;;;;;;;;;;;15.70;99.90;;;;;;5064815;28;20444;-70
2022/07/12 00:50:14;;;;;;;0.10;0.08;;;15.80;99.90;;;;;;5046058;28;19916;-70
2022/07/12 00:52:42;;;;;;;0.10;0.10;;;15.60;99.90;;;;;;5067933;28;20071;-70
2022/07/12 00:55:09;;;;;;;0.10;0.10;;;15.70;99.90;;;;;;5050272;28;20079;-70
2022/07/12 00:57:39;;;;;;;0.10;0.10;;;15.40;99.90;;;;;;5036681;28;20056;-70
2022/07/12 01:00:08;;;;;;;0.10;0.10;;;15.80;99.90;;;;;;5049926;28;20044;-70
2022/07/12 01:02:35;;;;;;;0.10;0.10;;;15.30;99.90;;;;;;5043687;28;20191;-70
2022/07/12 01:05:03;;;;;;;0.00;0.00;;;15.80;99.90;;;;;;5034587;28;20388;-70
2022/07/12 01:07:29;;;;;;;0.08;0.08;;;15.80;99.90;;;;;;5034999;28;20040;-70
2022/07/12 01:09:55;;;;;;;0.10;0.10;;;15.80;99.90;;;;;;5052881;28;20051;-70
2022/07/12 01:12:22;;;;;;;0.10;0.10;;;15.30;99.90;;;;;;5053328;28;20036;-70
2022/07/12 01:14:49;;;;;;;0.08;0.08;;;15.80;99.90;;;;;;5039672;28;20124;-70
2022/07/12 01:17:23;;;;;;;0.05;0.00;;;15.70;99.90;;;;;;5040209;28;20055;-70
2022/07/12 01:19:51;;;;;;;0.32;0.10;;;15.70;99.90;;;;;;5053719;28;20171;-70
2022/07/12 01:22:18;;;;;;;0.00;0.00;;;15.20;99.90;;;;;;5053760;28;20048;-70
2022/07/12 01:24:45;;;;;;;0.10;0.10;;;15.40;99.90;;;;;;5036682;28;20049;-70
2022/07/12 01:27:11;;;;;;;0.08;0.08;;;15.20;99.90;;;;;;5053716;28;20048;-70
2022/07/12 01:29:37;;;;;;;0.00;0.00;;;15.80;99.90;;;;;;5055491;28;20068;-70
2022/07/12 01:34:56;;;;;;;0.10;0.10;;;15.40;99.90;;;;;;5039408;28;20063;-70
2022/07/12 01:37:23;;;;;;;0.15;0.15;;;15.30;99.90;;;;;;5052842;28;20097;-70
2022/07/12 01:39:53;;;;;;;0.05;0.05;;;15.70;99.90;;;;;;5053072;28;20119;-70
2022/07/12 01:42:20;;;;;;;0.20;0.13;;;15.60;99.90;;;;;;5052776;28;20068;-70
2022/07/12 01:44:47;;;;;;;0.10;0.10;;;15.40;99.90;;;;;;5052758;28;20036;-70
2022/07/12 01:47:13;;;;;;;0.08;0.08;;;15.60;99.90;;;;;;5052895;28;20484;-70
2022/07/12 01:49:39;;;;;;;0.00;0.00;;;15.60;99.90;;;;;;5052902;28;20055;-70
2022/07/12 01:52:05;;;;;;;0.30;0.10;;;15.60;99.90;;;;;;5052535;28;20073;-70
2022/07/12 01:54:31;;;;;;;0.05;0.05;;;15.00;99.90;;;;;;5035692;28;20048;-70
2022/07/12 01:56:57;;;;;;;0.10;0.10;;;15.00;99.90;;;;;;5052700;28;20048;-70
2022/07/12 01:59:23;;;;;;;0.22;0.10;;;15.50;99.90;;;;;;5036218;28;20063;-74
2022/07/12 02:01:48;;;;;;;0.10;0.10;;;15.00;99.90;;;;;;5050420;28;20054;-74
2022/07/12 02:04:18;;;;;;;0.03;0.03;;;14.90;99.90;;;;;;5050451;28;20059;-74
2022/07/12 02:06:45;;;;;;;0.17;0.10;;;14.90;99.90;;;;;;5048867;28;20057;-74
2022/07/12 02:09:11;;;;;;;0.10;0.10;;;15.00;99.90;;;;;;5032456;28;20044;-74
2022/07/12 02:11:37;;;;;;;0.20;0.20;;;15.60;99.90;;;;;;5048992;28;20595;-74
2022/07/12 02:14:03;;;;;;;0.10;0.10;;;15.40;99.90;;;;;;5049308;28;20124;-74
2022/07/12 02:16:29;;;;;;;0.10;0.10;;;15.40;99.90;;;;;;5032423;28;20151;-74
2022/07/12 02:18:54;;;;;;;0.08;0.08;;;15.30;99.90;;;;;;5049385;28;20040;-74
2022/07/12 02:21:20;;;;;;;0.13;0.13;;;15.00;99.90;;;;;;5063476;28;20456;-74
2022/07/12 02:23:45;;;;;;;0.20;0.20;;;15.10;99.90;;;;;;5049238;28;20503;-74
2022/07/12 02:26:11;;;;;;;0.30;0.30;;;14.90;99.90;;;;;;5049519;28;20522;-74
2022/07/12 02:28:37;;;;;;;0.30;0.20;;;15.00;99.90;;;;;;5049155;28;20416;-74
2022/07/12 02:31:02;;;;;;;0.20;0.20;;;14.80;99.90;;;;;;5049623;28;20488;-74
2022/07/12 02:33:28;;;;;;;0.28;0.28;;;15.20;99.90;;;;;;5048962;28;20476;-74
2022/07/12 02:35:54;;;;;;;0.20;0.20;;;15.30;99.90;;;;;;5049223;28;20045;-74
2022/07/12 02:38:21;;;;;;;0.20;0.20;;;15.20;99.90;;;;;;5048684;28;20629;-74
2022/07/12 02:40:53;;;;;;;0.20;0.20;;;14.70;99.90;;;;;;5049197;28;20052;-74
2022/07/12 02:43:23;;;;;;;0.10;0.10;;;15.40;99.90;;;;;;5049380;28;20037;-74
2022/07/12 02:45:49;;;;;;;0.10;0.10;;;14.90;99.90;;;;;;5049136;28;20044;-74
2022/07/12 02:48:15;;;;;;;0.10;0.10;;;15.20;99.90;;;;;;5049065;28;20395;-74
2022/07/12 02:50:41;;;;;;;0.08;0.08;;;14.70;99.90;;;;;;5048993;28;20049;-74
2022/07/12 02:53:09;;;;;;;0.03;0.03;;;15.30;99.90;;;;;;5048786;28;20056;-74
2022/07/12 02:55:35;;;;;;;0.10;0.10;;;14.70;99.90;;;;;;5048896;28;20075;-74
2022/07/12 02:58:02;;;;;;;0.20;0.10;;;15.00;99.90;;;;;;5048806;28;20052;-74
2022/07/12 03:00:29;;;;;;;0.10;0.10;;;15.30;99.90;;;;;;5048288;28;20115;-74
2022/07/12 03:02:54;;;;;;;0.00;0.00;;;15.20;99.90;;;;;;5048579;28;20083;-74
2022/07/12 03:05:20;;;;;;;0.00;0.00;;;14.80;99.90;;;;;;5048810;28;20127;-74
2022/07/12 03:07:46;;;;;;;0.00;0.00;;;14.70;99.90;;;;;;5048387;28;20033;-74
2022/07/12 03:10:12;;;;;;;0.10;0.10;;;14.70;99.90;;;;;;5050276;28;20411;-74
2022/07/12 03:12:38;;;;;;;0.10;0.10;;;14.60;99.90;;;;;;5056679;28;20511;-74
2022/07/12 03:15:05;;;;;;;0.10;0.10;;;14.70;99.90;;;;;;5019277;28;20356;-74
2022/07/12 03:17:32;;;;;;;0.10;0.10;;;15.30;99.90;;;;;;5052296;28;20049;-74
2022/07/12 03:19:58;;;;;;;0.20;0.20;;;14.90;99.90;;;;;;5052237;28;20068;-74
2022/07/12 03:22:24;;;;;;;0.15;0.10;;;14.90;99.90;;;;;;5051795;28;20146;-74
2022/07/12 03:24:50;;;;;;;0.10;0.10;;;14.70;99.90;;;;;;5052295;28;20037;-74
2022/07/12 03:27:15;;;;;;;0.20;0.17;;;14.60;99.90;;;;;;5052235;28;20076;-74
2022/07/12 03:29:41;;;;;;;0.20;0.20;;;14.80;99.90;;;;;;5035405;28;20138;-74
2022/07/12 03:32:07;;;;;;;0.20;0.20;;;14.60;99.90;;;;;;5018832;28;20041;-74
2022/07/12 03:34:33;;;;;;;0.10;0.10;;;15.20;99.90;;;;;;5052369;28;20045;-74
2022/07/12 03:36:58;;;;;;;0.40;0.40;;;14.60;99.90;;;;;;5051721;28;20051;-74
2022/07/12 03:39:24;;;;;;;0.30;0.30;;;14.90;99.90;;;;;;5051145;28;20037;-74
2022/07/12 03:41:50;;;;;;;;;;;14.50;99.90;;;;;;5036081;28;20115;-74
2022/07/12 03:44:16;;;;;;;0.20;0.20;;;15.20;99.90;;;;;;5051840;28;19937;-74
2022/07/12 03:46:41;;;;;;;0.10;0.10;;;15.20;99.90;;;;;;5051882;28;20067;-74
2022/07/12 03:49:07;;;;;;;0.30;0.30;;;15.00;99.90;;;;;;5051713;28;20106;-74
2022/07/12 03:51:33;;;;;;;0.30;0.30;;;14.60;99.90;;;;;;5050995;28;20044;-74
2022/07/12 03:53:59;;;;;;;0.20;0.20;;;14.50;99.90;;;;;;5033724;28;20079;-74
2022/07/12 03:59:08;;;;;;;0.20;0.20;;;14.90;99.90;;;;;;5050746;28;20098;-74
2022/07/12 04:01:34;;;;;;;0.10;0.10;;;14.60;99.90;;;;;;5062212;28;20044;-74
2022/07/12 04:04:00;;;;;;;0.20;0.20;;;14.80;99.90;;;;;;5051608;28;20051;-74
2022/07/12 04:06:26;;;;;;;0.20;0.20;;;14.50;99.90;;;;;;5048214;28;20053;-74
2022/07/12 04:08:52;;;;;;;0.10;0.10;;;15.10;99.90;;;;;;5049248;28;20455;-74
2022/07/12 04:11:18;;;;;;;;;;;15.00;99.90;;;;;;5049833;28;20123;-74
2022/07/12 04:13:43;;;;;;;0.22;0.22;;;15.00;99.90;;;;;;5038258;28;20395;-74
2022/07/12 04:16:09;;;;;;;0.20;0.20;;;14.40;99.90;;;;;;5032234;28;20472;-74
2022/07/12 04:18:35;;;;;;;0.13;0.13;;;14.50;99.90;;;;;;5041796;28;20144;-74
2022/07/12 04:21:00;;;;;;;0.10;0.10;;;14.40;99.90;;;;;;5048506;28;20045;-74
2022/07/12 04:23:26;;;;;;;0.13;0.13;;;14.40;99.90;;;;;;5044783;28;20102;-74
2022/07/12 04:25:52;;;;;;;0.30;0.30;;;14.50;99.90;;;;;;5042105;28;20091;-74
2022/07/12 04:28:17;;;;;;;0.20;0.20;;;15.00;99.90;;;;;;5020226;28;20045;-74
2022/07/12 04:30:44;;;;;;;0.10;0.10;;;14.30;99.90;;;;;;5048403;28;20045;-74
2022/07/12 04:33:10;;;;;;;0.10;0.10;;;14.40;99.90;;;;;;5045114;28;20068;-73
2022/07/12 04:35:37;;;;;;;0.10;0.10;;;14.40;99.90;;;;;;5044827;28;20059;-73
2022/07/12 04:38:03;;;;;;;0.10;0.10;;;15.00;99.90;;;;;;5041565;28;20044;-73
2022/07/12 04:40:30;;;;;;;0.20;0.20;;;14.50;99.90;;;;;;5048153;28;20037;-74
2022/07/12 04:42:55;;;;;;;0.10;0.10;;;15.20;99.90;;;;;;5046527;28;20041;-74
2022/07/12 04:45:21;;;;;;;0.38;0.22;;;15.20;99.90;;;;;;5048525;28;20082;-73
2022/07/12 04:47:47;;;;;;;0.20;0.20;;;15.20;99.90;;;;;;5050155;28;20056;-74
2022/07/12 04:50:12;;;;;;;0.38;0.38;;;15.10;99.90;;;;;;5048459;28;20139;-73
2022/07/12 04:52:38;;;;;;;0.13;0.13;;;14.70;99.90;;;;;;5033556;28;20345;-73
2022/07/12 04:55:08;;;;;;;0.10;0.10;;;15.10;99.90;;;;;;5050312;28;20117;-73
2022/07/12 04:57:33;;;;;;;0.10;0.10;;;14.60;99.90;;;;;;5050520;28;20053;-73
2022/07/12 04:59:59;;;;;;;0.10;0.10;;;14.50;99.90;;;;;;5050063;28;20037;-74
2022/07/12 05:02:25;;;;;;;0.10;0.10;;;14.60;99.90;;;;;;5049001;28;20096;-75
2022/07/12 05:04:51;;;;;;;0.20;0.20;;;14.80;99.90;;;;;;5053285;28;20499;-74
2022/07/12 05:07:17;;;;;;;0.00;0.00;;;15.20;99.90;;;;;;5034782;28;20102;-73
2022/07/12 05:09:42;;;;;;;0.10;0.10;;;15.20;99.90;;;;;;5052363;28;20112;-73
2022/07/12 05:12:08;;;;;;;0.10;0.10;;;15.20;99.90;;;;;;5032984;28;20048;-73
2022/07/12 05:14:34;;;;;;;0.10;0.10;;;15.30;99.90;;;;;;5050379;28;20592;-73
2022/07/12 05:17:00;;;;;;;0.10;0.10;;;15.30;99.90;;;;;;5047330;28;22627;-73
2022/07/12 05:19:25;;;;;;;0.20;0.20;;;15.30;99.90;;;;;;5042015;28;20059;-73
2022/07/12 05:21:51;;;;;;;0.08;0.08;;;15.30;99.90;;;;;;5047614;28;20058;-73
2022/07/12 05:24:17;;;;;;;0.20;0.15;;;15.30;99.90;;;;;;5049867;28;20052;-73
2022/07/12 05:26:42;;;;;;;0.10;0.10;;;15.10;99.90;;;;;;5051991;28;20261;-73
2022/07/12 05:29:08;;;;;;;0.30;0.28;;;14.90;99.90;;;;;;5050360;28;20489;-73
2022/07/12 05:31:35;;;;;;;0.13;0.10;;;15.60;99.90;;;;;;5050537;28;20452;-73
2022/07/12 05:34:01;;;;;;;0.22;0.20;;;15.20;99.90;;;;;;5047686;28;20055;-73
2022/07/12 05:36:27;;;;;;;0.10;0.10;;;14.80;99.90;;;;;;5045602;28;20049;-73
2022/07/12 05:38:52;;;;;;;0.20;0.20;;;15.30;99.90;;;;;;5069472;28;20436;-73
2022/07/12 05:41:18;;;;;;;0.20;0.20;;;15.80;99.90;;;;;;5050050;28;20086;-73
2022/07/12 05:43:44;;;;;;;0.20;0.20;;;15.30;99.90;;;;;;5049947;28;20121;-73
2022/07/12 05:46:09;;;;;;;0.50;0.45;;;15.70;99.90;;;;;;5034919;28;20045;-73
2022/07/12 05:48:36;;;;;;;0.10;0.10;;;15.70;99.90;;;;;;5033585;28;20119;-73
2022/07/12 05:53:54;;;;;;;0.20;0.20;;;15.80;99.90;;;;;;5020420;28;20051;-74
2022/07/12 05:56:20;;;;;;;0.30;0.30;;;15.40;99.90;;;;;;5045042;28;20597;-73
2022/07/12 05:58:46;;;;;;;0.30;0.30;;;15.60;99.90;;;;;;5049913;28;20043;-74
2022/07/12 06:01:11;;;;;;;0.20;0.20;;;16.10;99.90;;;;;;5048279;28;20085;-73
2022/07/12 06:03:37;;;;;;;0.30;0.30;;;16.10;99.90;;;;;;5051970;28;20060;-75
2022/07/12 06:06:03;;;;;;;0.40;0.20;;;16.30;99.90;;;;;;5051303;28;20044;-73
2022/07/12 06:08:29;;;;;;;0.20;0.20;;;15.70;99.90;;;;;;5048291;28;20045;-75
2022/07/12 06:10:54;;;;;;;0.10;0.10;;;16.10;99.90;;;;;;5059393;28;20088;-75
2022/07/12 06:13:20;;;;;;;0.20;0.20;;;16.20;99.90;;;;;;5031195;28;20041;-75
2022/07/12 06:15:46;;;;;;;0.20;0.20;;;16.60;99.90;;;;;;5048566;28;20045;-74
2022/07/12 06:18:12;;;;;;;0.28;0.28;;;15.90;99.90;;;;;;5044408;28;20063;-75
2022/07/12 06:20:37;;;;;;;0.22;0.20;;;16.70;99.90;;;;;;5052138;28;20142;-74
2022/07/12 06:23:03;;;;;;;0.30;0.30;;;16.60;99.90;;;;;;5048240;28;20486;-74
2022/07/12 06:25:29;;;;;;;0.13;0.10;;;16.00;99.90;;;;;;5041130;28;20148;-75
2022/07/12 06:27:54;;;;;;;0.30;0.30;;;16.10;99.90;;;;;;5049667;28;20126;-74
2022/07/12 06:30:21;;;;;;;0.20;0.20;;;16.80;99.90;;;;;;5051720;28;20029;-74
2022/07/12 06:32:48;;;;;;;0.20;0.20;;;16.20;99.90;;;;;;5044770;28;20055;-75
2022/07/12 06:35:14;;;;;;;0.35;0.35;;;16.30;99.90;;;;;;5048171;28;20124;-74
2022/07/12 06:37:41;;;;;;;0.22;0.22;;;16.30;99.90;;;;;;5051748;28;20129;-74
2022/07/12 06:40:08;;;;;;;0.30;0.30;;;16.80;99.90;;;;;;5051651;28;20044;-75
2022/07/12 06:42:34;;;;;;;0.40;0.38;;;16.70;99.90;;;;;;5051638;28;20076;-74
2022/07/12 06:45:01;;;;;;;0.20;0.20;;;17.00;99.90;;;;;;5051876;28;20044;-74
2022/07/12 06:47:27;;;;;;;0.30;0.30;;;17.30;99.90;;;;;;5052656;28;20048;-74
2022/07/12 06:49:53;;;;;;;0.30;0.30;;;16.70;99.90;;;;;;5056049;28;20600;-74
2022/07/12 06:52:18;;;;;;;0.20;0.20;;;16.80;99.90;;;;;;5039321;28;20055;-75
2022/07/12 06:54:44;;;;;;;;;;;16.90;99.90;;;;;;5056426;28;20044;-74
2022/07/12 06:57:10;;;;;;;0.40;0.40;;;17.60;99.90;;;;;;5055478;28;21073;-74
2022/07/12 06:59:35;;;;;;;0.40;0.40;;;17.50;99.90;;;;;;5055082;28;20048;-74
2022/07/12 07:02:01;;;;;;;;;;;17.30;99.90;;;;;;5055587;28;20036;-74
2022/07/12 07:04:27;;;;;;;0.30;0.30;;;18.00;99.90;;;;;;5053950;28;20472;-74
2022/07/12 07:06:53;;;;;;;0.13;0.10;;;17.60;99.90;;;;;;5059467;28;20045;-74
2022/07/12 07:09:19;;;;;;;0.20;0.20;;;17.80;99.90;;;;;;5072066;28;20408;-74
2022/07/12 07:11:45;;;;;;;;;;;18.10;99.90;;;;;;5051004;28;20088;-74
2022/07/12 07:14:11;;;;;;;0.30;0.30;;;18.50;99.90;;;;;;5054869;28;19928;-74
2022/07/12 07:16:36;;;;;;;;;;;18.70;99.90;;;;;;5069245;28;20049;-74
2022/07/12 07:19:03;;;;;;;0.50;0.50;;;18.60;99.90;;;;;;5035640;28;19924;-74
2022/07/12 07:21:29;;;;;;;0.30;0.30;;;19.00;99.90;;;;;;5037345;28;20115;-74
2022/07/12 07:23:55;;;;;;;;;;;19.00;99.90;;;;;;5073911;28;20559;-74
2022/07/12 07:26:21;;;;;;;0.40;0.40;;;19.50;99.90;;;;;;5055354;28;19928;-74
2022/07/12 07:31:34;;;;;;;0.55;0.30;;;19.80;99.90;;;;;;5052054;28;20055;-74
2022/07/12 07:34:00;;;;;;;1.10;0.45;;;20.00;99.90;;;;;;5049258;28;20495;-74
2022/07/12 07:36:26;;;;;;;;;;;20.00;99.90;;;;;;5054896;28;20152;-74
2022/07/12 07:38:52;;;;;;;0.40;0.40;;;20.20;99.90;;;;;;5054932;28;20485;-74
2022/07/12 07:41:17;;;;;;;;;;;20.50;99.90;;;;;;5045189;28;20045;-74
2022/07/12 07:43:43;;;;;;;0.28;0.20;;;20.40;99.90;;;;;;5051553;28;19920;-74
2022/07/12 07:46:09;;;;;;;;;;;20.60;99.90;;;;;;5055597;28;20041;-74
2022/07/12 07:48:34;;;;;;;0.20;0.20;;;20.80;99.90;;;;;;5054797;28;19960;-74
2022/07/12 07:51:00;;;;;;;;;;;21.00;99.90;;;;;;5032676;28;20037;-74
2022/07/12 07:53:26;;;;;;;0.40;0.40;;;21.20;99.90;;;;;;5046994;28;20416;-74
2022/07/12 07:55:51;;;;;;;0.20;0.20;;;21.30;99.90;;;;;;5020064;28;20071;-74
2022/07/12 07:58:17;;;;;;;;;;;21.40;99.90;;;;;;5029112;28;20051;-74
2022/07/12 08:00:43;;;;;;;0.45;0.38;;;21.30;99.90;;;;;;5040990;28;19917;-74
2022/07/12 08:03:08;;;;;;;;;;;21.60;99.90;;;;;;5053411;28;20329;-74
2022/07/12 08:05:34;;;;;;;0.20;0.20;;;21.70;99.90;;;;;;5053981;28;19916;-74
2022/07/12 08:08:00;;;;;;;0.20;0.20;;;21.80;99.90;;;;;;5046330;28;20032;-74
2022/07/12 08:10:26;;;;;;;0.95;0.20;;;21.90;99.90;;;;;;5049946;28;20513;-74
2022/07/12 08:12:52;;;;;;;0.20;0.20;;;22.10;99.90;;;;;;5051752;28;20056;-74
2022/07/12 08:15:17;;;;;;;0.30;0.20;;;22.10;99.90;;;;;;5034988;28;20049;-74
2022/07/12 08:17:43;;;;;;;0.52;0.45;;;22.20;99.90;;;;;;5029466;28;20563;-74
2022/07/12 08:20:09;;;;;;;0.30;0.30;;;22.10;99.90;;;;;;5035887;28;20147;-74
2022/07/12 08:22:46;;;;;;;0.30;0.30;;;22.00;99.90;;;;;;5050363;28;20051;-74
2022/07/12 08:25:15;;;;;;;;;;;22.10;99.90;;;;;;5054977;28;20492;-74
2022/07/12 08:27:40;;;;;;;0.10;0.10;;;22.20;99.90;;;;;;5044201;28;20010;-74
2022/07/12 08:30:07;;;;;;;0.32;0.20;;;22.10;99.90;;;;;;5039082;28;20140;-74
2022/07/12 08:32:33;;;;;;;0.10;0.10;;;22.10;99.90;;;;;;5043909;28;20093;-74
2022/07/12 08:34:59;;;;;;;0.15;0.15;;;22.10;99.90;;;;;;5052861;28;20056;-74
2022/07/12 08:37:25;;;;;;;0.15;0.10;;;22.20;99.90;;;;;;5048674;28;20045;-74
2022/07/12 08:39:50;;;;;;;0.10;0.10;;;22.30;99.90;;;;;;5053079;28;20063;-74
2022/07/12 08:42:18;;;;;;;0.10;0.10;;;22.30;99.90;;;;;;5021590;28;20055;-74
2022/07/12 08:44:44;;;;;;;0.35;0.20;;;22.30;99.90;;;;;;5053459;28;20048;-74
2022/07/12 08:47:10;;;;;;;0.20;0.20;;;22.20;99.90;;;;;;5051321;28;20040;-74
2022/07/12 08:49:37;;;;;;;0.30;0.20;;;22.20;99.90;;;;;;5053632;28;20539;-74
2022/07/12 08:52:25;;;;;;;0.30;0.20;;;22.10;99.90;;;;;;5053616;28;20032;-73
2022/07/12 08:54:51;;;;;;;0.50;0.38;;;22.30;99.90;;;;;;5059274;28;20036;-74
2022/07/12 08:57:30;;;;;;;0.30;0.30;;;22.20;99.90;;;;;;5031075;28;20447;-74
2022/07/12 09:00:00;;;;;;;0.13;0.13;;;22.30;99.90;;;;;;5053409;28;20037;-74
2022/07/12 09:02:26;;;;;;;0.20;0.20;;;22.50;99.90;;;;;;5052088;28;20086;-74
2022/07/12 09:05:08;;;;;;;0.10;0.10;;;22.50;99.90;;;;;;5052853;28;20044;-74
2022/07/12 09:07:36;;;;;;;0.22;0.20;;;22.80;99.90;;;;;;5051336;28;20530;-74
2022/07/12 09:10:07;;;;;;;0.38;0.30;;;23.00;99.90;;;;;;5050016;28;20048;-75
2022/07/12 09:12:36;;;;;;;0.20;0.20;;;23.20;99.90;;;;;;5033408;28;20123;-74
2022/07/12 09:15:21;;;;;;;0.30;0.30;;;23.30;99.90;;;;;;5051837;28;20181;-74
2022/07/12 09:18:04;;;;;;;0.32;0.22;;;23.40;99.90;;;;;;5051181;28;20044;-75
2022/07/12 09:20:29;;;;;;;0.25;0.25;;;23.40;99.90;;;;;;5065332;28;20094;-73
2022/07/12 09:22:57;;;;;;;0.50;0.50;;;23.50;99.90;;;;;;5033196;28;20041;-74
2022/07/12 09:25:23;;;;;;;0.32;0.30;;;23.40;99.90;;;;;;5055273;28;20040;-74
2022/07/12 09:28:00;;;;;;;0.20;0.20;;;23.50;99.90;;;;;;5052534;28;20041;-74
2022/07/12 09:30:28;;;;;;;0.20;0.20;;;23.50;99.90;;;;;;5052543;28;20438;-74
2022/07/12 09:38:27;;;;;;;0.20;0.20;;;23.30;99.90;;;;;;5052687;28;20044;-74
2022/07/12 09:40:57;;;;;;;0.20;0.20;;;23.20;99.90;;;;;;5053363;28;20114;-74
2022/07/12 09:43:23;;;;;;;0.10;0.10;;;23.20;99.90;;;;;;5063282;28;20111;-74
2022/07/12 09:45:49;;;;;;;0.28;0.15;;;23.30;99.90;;;;;;5036176;28;20123;-74
2022/07/12 09:48:16;;;;;;;0.20;0.10;;;23.50;99.90;;;;;;5046755;28;20042;-74
2022/07/12 09:50:47;;;;;;;0.10;0.10;;;23.70;99.90;;;;;;5032459;28;20047;-74
2022/07/12 09:53:20;;;;;;;0.00;0.00;;;23.80;99.90;;;;;;5051449;28;20068;-74
2022/07/12 09:55:48;;;;;;;0.20;0.10;;;24.10;99.90;;;;;;5048533;28;20062;-74
2022/07/12 09:58:17;;;;;;;0.30;0.20;;;24.50;99.90;;;;;;5050971;28;20044;-73
2022/07/12 10:00:43;;;;;;;0.10;0.10;;;24.80;99.90;;;;;;5032638;28;21193;-73
2022/07/12 10:03:11;;;;;;;0.10;0.10;;;24.80;99.90;;;;;;5050074;28;20053;-73
2022/07/12 10:05:40;;;;;;;0.05;0.05;;;25.10;99.90;;;;;;5047857;28;20045;-73
2022/07/12 10:08:07;;;;;;;0.35;0.10;;;25.40;99.90;;;;;;5048446;28;20527;-73
2022/07/12 10:10:33;;;;;;;0.20;0.20;;;25.60;99.90;;;;;;5067394;28;20553;-73
2022/07/12 10:12:59;;;;;;;0.10;0.10;;;25.60;99.90;;;;;;5048056;28;20086;-74
2022/07/12 10:15:28;;;;;;;0.13;0.10;;;25.60;99.90;;;;;;5036375;28;20052;-74
2022/07/12 10:17:55;;;;;;;0.30;0.20;;;25.60;99.90;;;;;;5057031;28;20074;-74
2022/07/12 10:20:24;;;;;;;0.75;0.20;;;25.90;99.90;;;;;;5050579;28;20045;-74
2022/07/12 10:23:12;;;;;;;0.22;0.10;;;25.90;99.90;;;;;;5050564;28;20040;-73
2022/07/12 10:25:38;;;;;;;0.40;0.20;;;25.80;99.90;;;;;;5031014;28;20119;-73
2022/07/12 10:28:04;;;;;;;0.20;0.17;;;25.60;99.90;;;;;;5046932;28;20560;-70
2022/07/12 10:30:30;;;;;;;0.13;0.13;;;25.70;99.90;;;;;;5031282;28;20380;-70
2022/07/12 10:32:59;;;;;;;0.10;0.10;;;25.80;99.90;;;;;;5060537;28;20503;-73
2022/07/12 10:35:27;;;;;;;0.30;0.20;;;25.90;99.90;;;;;;5070828;28;20045;-72
2022/07/12 10:38:13;;;;;;;0.17;0.10;;;25.90;99.90;;;;;;5053016;28;20044;-70
2022/07/12 10:40:43;;;;;;;0.20;0.20;;;25.80;99.90;;;;;;5036309;28;20040;-72
2022/07/12 10:43:09;;;;;;;1.10;0.40;;;26.00;99.90;;;;;;5053127;28;20048;-73
2022/07/12 10:45:39;;;;;;;0.10;0.10;;;25.80;99.10;;;;;;5052820;28;20117;-73
2022/07/12 10:48:06;;;;;;;0.25;0.25;;;26.00;99.90;;;;;;5052908;28;20044;-73
2022/07/12 10:50:44;;;;;;;0.20;0.20;;;25.90;98.30;;;;;;5019726;28;20049;-73
2022/07/12 10:53:22;;;;;;;0.20;0.20;;;25.90;97.20;;;;;;5032937;28;20496;-73
2022/07/12 10:56:09;;;;;;;0.13;0.10;;;26.30;98.90;;;;;;5033034;28;20080;-73
2022/07/12 10:58:36;;;;;;;0.20;0.20;;;26.40;97.00;;;;;;5032876;28;20091;-73
2022/07/12 11:01:10;;;;;;;0.20;0.20;;;26.50;97.90;;;;;;5051361;28;20430;-70
2022/07/12 11:03:51;;;;;;;0.20;0.20;;;26.60;96.20;;;;;;5031696;28;20061;-70
2022/07/12 11:06:19;;;;;;;0.20;0.17;;;26.50;95.20;;;;;;5034296;28;20475;-70
2022/07/12 11:08:55;;;;;;;0.25;0.22;;;26.40;96.90;;;;;;5041341;28;20036;-70
2022/07/12 11:11:22;;;;;;;0.30;0.30;;;26.20;96.60;;;;;;5052616;28;20119;-72
2022/07/12 11:13:49;;;;;;;0.30;0.30;;;26.10;97.50;;;;;;5053048;28;20040;-73
2022/07/12 11:16:15;;;;;;;0.20;0.20;;;26.00;97.40;;;;;;5052483;28;20045;-70
2022/07/12 11:18:41;;;;;;;0.30;0.20;;;26.00;96.80;;;;;;5052312;28;20043;-70
2022/07/12 11:21:06;;;;;;;0.25;0.20;;;26.00;96.20;;;;;;5023964;28;20123;-72
2022/07/12 11:23:32;;;;;;;0.20;0.20;;;25.90;96.80;;;;;;5036692;28;20044;-73
2022/07/12 11:26:00;;;;;;;0.10;0.10;;;25.80;95.60;;;;;;5042550;28;20059;-70
2022/07/12 11:28:30;;;;;;;0.20;0.13;;;25.80;96.80;;;;;;5046555;28;20049;-70
2022/07/12 11:31:11;;;;;;;0.32;0.30;;;25.90;97.90;;;;;;5032798;28;20510;-70
2022/07/12 11:33:40;;;;;;;0.35;0.30;;;25.90;98.60;;;;;;5049374;28;20058;-72
2022/07/12 11:36:09;;;;;;;0.40;0.20;;;26.20;96.60;;;;;;5056166;28;20056;-73
2022/07/12 11:38:36;;;;;;;0.20;0.20;;;26.30;96.40;;;;;;5056184;28;20040;-73
2022/07/12 11:41:04;;;;;;;0.45;0.30;;;26.60;98.10;;;;;;5047962;28;20098;-73
2022/07/12 11:43:31;;;;;;;1.02;0.40;;;26.80;98.10;;;;;;5036673;28;20037;-73
2022/07/12 11:45:57;;;;;;;0.35;0.28;;;26.90;97.10;;;;;;5049685;28;20396;-73
2022/07/12 11:48:24;;;;;;;0.30;0.30;;;27.20;97.90;;;;;;5048648;28;20093;-73
2022/07/12 11:57:09;;;;;;;0.20;0.20;;;26.90;95.30;;;;;;5328748;23;20086;31
2022/07/12 11:59:35;;;;;;;0.20;0.20;;;27.10;94.50;;;;;;5529913;23;20051;-71
2022/07/12 12:02:04;;;;;;;0.10;0.10;;;27.10;93.70;;;;;;4926817;29;20091;-74
2022/07/12 12:04:29;;;;;;;0.40;0.15;;;27.30;95.90;;;;;;4952683;29;20502;-74
2022/07/12 12:06:55;;;;;;;0.20;0.17;;;27.60;95.10;;;;;;4952464;29;20160;-74
2022/07/12 12:09:21;;;;;;;0.17;0.10;;;27.80;95.10;;;;;;4947359;29;20146;-74
2022/07/12 12:11:46;;;;;;;0.20;0.20;;;27.80;94.70;;;;;;4954386;29;20054;-72
2022/07/12 12:14:12;;;;;;;0.38;0.20;;;27.80;94.00;;;;;;4939647;29;20504;-72
2022/07/12 12:16:38;;;;;;;0.10;0.10;;;27.90;94.20;;;;;;4941756;29;20052;-72
2022/07/12 12:19:10;;;;;;;0.15;0.13;;;28.00;95.20;;;;;;4953765;29;20043;-72
2022/07/12 12:21:36;;;;;;;0.30;0.20;;;27.90;93.70;;;;;;4936525;29;20032;-72
2022/07/12 12:24:09;;;;;;;0.30;0.30;;;27.70;94.00;;;;;;4934875;29;20063;-72
2022/07/12 12:26:35;;;;;;;0.20;0.20;;;27.40;94.20;;;;;;4934714;29;20126;-72
2022/07/12 12:29:02;;;;;;;0.20;0.20;;;27.60;94.40;;;;;;4945394;29;20134;-72
2022/07/12 12:31:28;;;;;;;0.30;0.30;;;27.80;94.10;;;;;;4955106;28;20089;-71
2022/07/12 12:33:58;;;;;;;0.85;0.40;;;27.40;92.70;;;;;;4945087;29;20452;-71
2022/07/12 12:36:25;;;;;;;0.57;0.40;;;27.40;92.70;;;;;;4935256;29;20510;-73
2022/07/12 12:38:52;;;;;;;0.40;0.30;;;27.60;94.90;;;;;;4953612;29;20043;-72
2022/07/12 12:41:19;;;;;;;0.47;0.30;;;27.60;93.10;;;;;;4942251;29;20099;-72
2022/07/12 12:43:45;;;;;;;0.52;0.40;;;27.70;92.40;;;;;;4939492;29;20483;-72
2022/07/12 12:46:10;;;;;;;0.68;0.30;;;27.60;93.80;;;;;;4941630;28;20091;-72
2022/07/12 12:48:36;;;;;;;0.22;0.22;;;27.40;93.00;;;;;;4934380;29;20113;-72
2022/07/12 12:51:06;;;;;;;0.65;0.40;;;27.60;93.20;;;;;;4932882;29;20095;-72
2022/07/12 12:53:33;;;;;;;0.50;0.25;;;27.60;93.70;;;;;;4933956;29;20079;-72
2022/07/12 12:55:59;;;;;;;0.47;0.20;;;27.60;93.90;;;;;;4945467;29;20483;-72
2022/07/12 12:58:25;;;;;;;0.57;0.30;;;27.90;94.20;;;;;;4947451;29;20053;-72
2022/07/12 13:00:53;;;;;;;0.40;0.40;;;27.90;94.20;;;;;;4941254;29;20047;-72
2022/07/12 13:03:21;;;;;;;0.88;0.52;;;27.80;93.90;;;;;;4946260;29;20043;-72
2022/07/12 13:05:48;;;;;;;0.80;0.60;;;27.60;95.00;;;;;;4937447;29;20103;-72
2022/07/12 13:08:15;;;;;;;0.60;0.50;;;27.70;94.20;;;;;;4937475;29;20039;-72
2022/07/12 13:10:43;;;;;;;0.90;0.60;;;28.00;94.30;;;;;;4938023;29;20039;-72
2022/07/12 13:13:09;;;;;;;1.08;0.60;;;28.00;93.40;;;;;;4945028;28;20072;-72